Millville Municipal Airport
KMIV : now visible

Airfield :











YOU CAN JOIN US ON...

 
LOGIN :

Register | Disclaimer

   EN    FR    IT 

 









Legend :    VFR   Marginal VFR   IFR   Intensive IFR   Very Intensive IFR
Visi :
Ceiling :
>= 8 km
>= 3000ft
5 to 8 km
1000 to 3000 ft
1500m to 5 km
500 to 1000 ft
800 to 1500m
200 to 500 ft
< 800m
< 200 ft
Symbols :   Thunderstorms  Fog  Heavy snow  Heavy precipitations  Wind > 20 kt






- Airport Elevation : 85 ft


KMIV - Millville Municipal

CURRENT METAR :
  • 120154Z AUTO 29007KT 10SM CLR M01/M07 A3047 RMK AO2 SLP316 T10061072

EXPIRED METARs :
  • 120054Z AUTO 30004KT 10SM CLR M01/M07 A3044 RMK AO2 SLP307 T10111067
  • 112354Z AUTO 30006KT 10SM CLR M01/M07 A3042 RMK AO2 SLP302 T10061072 10044 21022 51028

TAF KMIV
Valid from the 12 at 00:00 until the 13 at 00:00 UTC


112338Z 1200/1224 27005KT P6SM FEW050
FM120400 32005KT P6SM SKC
FM120900 35005KT P6SM SKC
FM122100 15004KT P6SM SKC



MET'MAP, your aeronautical weather chart ! - Copyright ORBIFLY December 2007 - Disclaimer

ORBIFLY MET'MAP TEAM :

Programming & Development : Alexandra Zaïnal
Concept & original design : Baudouin d'Aumeries
Assistance for programming : Marc-Olivier Méhu
Technical & hardware support : Manuel Goepfert

Contact : metmap@orbifly.com




SOURCES & CREDITS :

   NOAA       Earth
Advisory